Gas Wisdom — H9CC — position and weather

sailwx.info

Track history (hours):
 
Tides and Currents Weather Stations Pressure Air Temp Water Temp Dewpoint Dewpoint Depression Visibility Wind Speed Wind Dir Waves Ship Positions

Gas Wisdom

Last reported at 2018-Feb-22 09:25 UTC. Time now 2018-Feb-24 06:36 UTC.
Position N 01°19' E 103°18'.

Length 225 m; draft 8 m.

Type: Tanker. MMSI: 373435000.

Date/timePositionNaut miles runAvg speedWind from/ knotsBaromVisibWave heightAir tempDewpointWater temp
2018-Feb-22 09:25N 01°19' E 103°18'715.6
2018-Feb-22 09:00N 01°15' E 103°23'714.5
2018-Feb-22 08:30N 01°13' E 103°30'813.5
2018-Feb-22 07:56N 01°11' E 103°38'1 1.7
2018-Feb-22 07:30N 01°11' E 103°39'1 2.2
2018-Feb-22 06:59N 01°11' E 103°40'0 0.8
2018-Feb-22 06:30N 01°11' E 103°40'1 1.3
2018-Feb-22 06:00N 01°10' E 103°40'1 2.4
2018-Feb-22 05:30N 01°10' E 103°42'3 5.4
2018-Feb-22 05:00N 01°08' E 103°44'4 8.5
2018-Feb-22 04:30N 01°10' E 103°48'3 6.6
2018-Feb-22 03:59N 01°11' E 103°51'3 6.9
2018-Feb-22 03:30N 01°13' E 103°54'4 7.5
2018-Feb-22 03:00N 01°15' E 103°57'4 7.5
2018-Feb-22 02:30N 01°16' E 104°01'4 8.2
2018-Feb-22 01:59N 01°16' E 104°05'  
2018-Feb-14 02:08N 34°31' E 137°02'210.6
2018-Feb-14 01:56N 34°33' E 137°01'4 9.8
2018-Feb-14 01:29N 34°37' E 136°57'713.7
2018-Feb-14 01:00N 34°43' E 136°59'713.9
2018-Feb-14 00:30N 34°50' E 136°56'1 1.9
2018-Feb-14 00:00N 34°50' E 136°57'0 0.0
2018-Feb-13 23:30N 34°50' E 136°57'0 0.0
2018-Feb-13 22:42N 34°50' E 136°57'0 0.0
2018-Feb-13 22:24N 34°50' E 136°57'0 0.0
2018-Feb-13 22:00N 34°50' E 136°57'0 0.0
2018-Feb-13 21:24N 34°50' E 136°57'0 0.0
2018-Feb-13 20:54N 34°50' E 136°57'0 0.0
2018-Feb-13 20:30N 34°50' E 136°57'0 0.0
2018-Feb-13 19:54N 34°50' E 136°57'0 0.0
2018-Feb-13 19:18N 34°50' E 136°57'0 0.0
2018-Feb-13 19:00N 34°50' E 136°57'0 0.0
2018-Feb-13 18:15N 34°50' E 136°57'0 0.0
2018-Feb-13 18:00N 34°50' E 136°57'0 0.0
2018-Feb-13 17:30N 34°50' E 136°57'0 0.0
2018-Feb-13 17:00N 34°50' E 136°57'0 0.0
2018-Feb-13 16:30N 34°50' E 136°57'0 0.0
2018-Feb-13 15:48N 34°50' E 136°57'0 0.0
2018-Feb-13 14:54N 34°50' E 136°57'0 0.0
2018-Feb-13 14:30N 34°50' E 136°57'0 0.0
2018-Feb-13 14:00N 34°50' E 136°57'0 0.0
2018-Feb-13 13:30N 34°50' E 136°57'0 0.0
2018-Feb-13 13:00N 34°50' E 136°57'0 0.0
2018-Feb-13 12:30N 34°50' E 136°57'0 0.0
2018-Feb-13 12:00N 34°50' E 136°57'0 0.0
2018-Feb-13 11:30N 34°50' E 136°57'0 0.0
2018-Feb-13 10:54N 34°50' E 136°57'0 0.0
2018-Feb-13 10:24N 34°50' E 136°57'0 0.0
2018-Feb-13 10:00N 34°50' E 136°57'0 0.0
2018-Feb-13 09:30N 34°50' E 136°57'0 0.0
2018-Feb-13 08:54N 34°50' E 136°57'0 0.0
2018-Feb-13 08:30N 34°50' E 136°57'0 0.0
2018-Feb-13 08:00N 34°50' E 136°57'0 0.0
2018-Feb-13 07:24N 34°50' E 136°57'0 0.0
2018-Feb-13 06:54N 34°50' E 136°57'0 0.0
2018-Feb-13 06:24N 34°50' E 136°57'0 0.0
2018-Feb-13 05:54N 34°50' E 136°57'0 0.0
2018-Feb-13 05:30N 34°50' E 136°57'0 0.0
2018-Feb-13 05:00N 34°50' E 136°57'0 0.0
2018-Feb-13 04:30N 34°50' E 136°57'0 0.0
2018-Feb-13 03:42N 34°50' E 136°57'0 0.0
2018-Feb-13 03:30N 34°50' E 136°57'0 0.0
2018-Feb-13 02:48N 34°50' E 136°57'0 0.0
2018-Feb-13 02:30N 34°50' E 136°57'0 0.0
2018-Feb-13 01:54N 34°50' E 136°57'0 0.0
2018-Feb-13 01:30N 34°50' E 136°57'0 0.0
2018-Feb-13 01:00N 34°50' E 136°57'0 0.0
2018-Feb-13 00:24N 34°50' E 136°57'0 0.0
2018-Feb-12 23:54N 34°50' E 136°57'0 0.0
2018-Feb-12 23:30N 34°50' E 136°57'0 0.0
2018-Feb-12 23:00N 34°50' E 136°57'0 0.0
2018-Feb-12 21:12N 34°50' E 136°57'0 0.0
2018-Feb-12 21:00N 34°50' E 136°57'0 0.0
2018-Feb-12 20:30N 34°50' E 136°57'0 0.0
2018-Feb-12 20:00N 34°50' E 136°57'0 0.0
2018-Feb-12 19:30N 34°50' E 136°57'0 0.0
2018-Feb-12 19:00N 34°50' E 136°57'0 0.0
2018-Feb-12 18:24N 34°50' E 136°57'0 0.0
2018-Feb-12 17:54N 34°50' E 136°57'0 0.0
2018-Feb-12 17:18N 34°50' E 136°57'0 0.0
2018-Feb-12 16:54N 34°50' E 136°57'0 0.0
2018-Feb-12 16:30N 34°50' E 136°57'0 0.0
2018-Feb-12 15:54N 34°50' E 136°57'0 0.0
2018-Feb-12 15:12N 34°50' E 136°57'0 0.0
2018-Feb-12 15:00N 34°50' E 136°57'0 0.0
2018-Feb-12 14:30N 34°50' E 136°57'0 0.0
2018-Feb-12 14:00N 34°50' E 136°57'0 0.0
2018-Feb-12 13:30N 34°50' E 136°57'0 0.0
2018-Feb-12 13:00N 34°50' E 136°57'0 0.0
2018-Feb-12 12:30N 34°50' E 136°57'0 0.0
2018-Feb-12 12:00N 34°50' E 136°57'0 0.0
2018-Feb-12 11:18N 34°50' E 136°57'0 0.0
2018-Feb-12 11:00N 34°50' E 136°57'0 0.0
2018-Feb-12 10:30N 34°50' E 136°57'0 0.0
2018-Feb-12 10:00N 34°50' E 136°57'0 0.0
2018-Feb-12 09:30N 34°50' E 136°57'  
Track history (hours):
 
Tides and Currents Weather Stations Pressure Air Temp Water Temp Dewpoint Dewpoint Depression Visibility Wind Speed Wind Dir Waves Ship Positions

Gas Wisdom

Last reported at 2018-Feb-22 09:25 UTC. Time now 2018-Feb-24 06:36 UTC.
Position N 01°19' E 103°18'.

Length 225 m; draft 8 m.

Type: Tanker. MMSI: 373435000.

Date/timePositionNaut miles runAvg speedWind from/ knotsBaromVisibWave heightAir tempDewpointWater temp
2018-Feb-22 09:25N 01°19' E 103°18'715.6
2018-Feb-22 09:00N 01°15' E 103°23'714.5
2018-Feb-22 08:30N 01°13' E 103°30'813.5
2018-Feb-22 07:56N 01°11' E 103°38'1 1.7
2018-Feb-22 07:30N 01°11' E 103°39'1 2.2
2018-Feb-22 06:59N 01°11' E 103°40'0 0.8
2018-Feb-22 06:30N 01°11' E 103°40'1 1.3
2018-Feb-22 06:00N 01°10' E 103°40'1 2.4
2018-Feb-22 05:30N 01°10' E 103°42'3 5.4
2018-Feb-22 05:00N 01°08' E 103°44'4 8.5
2018-Feb-22 04:30N 01°10' E 103°48'3 6.6
2018-Feb-22 03:59N 01°11' E 103°51'3 6.9
2018-Feb-22 03:30N 01°13' E 103°54'4 7.5
2018-Feb-22 03:00N 01°15' E 103°57'4 7.5
2018-Feb-22 02:30N 01°16' E 104°01'4 8.2
2018-Feb-22 01:59N 01°16' E 104°05'  
2018-Feb-14 02:08N 34°31' E 137°02'210.6
2018-Feb-14 01:56N 34°33' E 137°01'4 9.8
2018-Feb-14 01:29N 34°37' E 136°57'713.7
2018-Feb-14 01:00N 34°43' E 136°59'713.9
2018-Feb-14 00:30N 34°50' E 136°56'1 1.9
2018-Feb-14 00:00N 34°50' E 136°57'0 0.0
2018-Feb-13 23:30N 34°50' E 136°57'0 0.0
2018-Feb-13 22:42N 34°50' E 136°57'0 0.0
2018-Feb-13 22:24N 34°50' E 136°57'0 0.0
2018-Feb-13 22:00N 34°50' E 136°57'0 0.0
2018-Feb-13 21:24N 34°50' E 136°57'0 0.0
2018-Feb-13 20:54N 34°50' E 136°57'0 0.0
2018-Feb-13 20:30N 34°50' E 136°57'0 0.0
2018-Feb-13 19:54N 34°50' E 136°57'0 0.0
2018-Feb-13 19:18N 34°50' E 136°57'0 0.0
2018-Feb-13 19:00N 34°50' E 136°57'0 0.0
2018-Feb-13 18:15N 34°50' E 136°57'0 0.0
2018-Feb-13 18:00N 34°50' E 136°57'0 0.0
2018-Feb-13 17:30N 34°50' E 136°57'0 0.0
2018-Feb-13 17:00N 34°50' E 136°57'0 0.0
2018-Feb-13 16:30N 34°50' E 136°57'0 0.0
2018-Feb-13 15:48N 34°50' E 136°57'0 0.0
2018-Feb-13 14:54N 34°50' E 136°57'0 0.0
2018-Feb-13 14:30N 34°50' E 136°57'0 0.0
2018-Feb-13 14:00N 34°50' E 136°57'0 0.0
2018-Feb-13 13:30N 34°50' E 136°57'0 0.0
2018-Feb-13 13:00N 34°50' E 136°57'0 0.0
2018-Feb-13 12:30N 34°50' E 136°57'0 0.0
2018-Feb-13 12:00N 34°50' E 136°57'0 0.0
2018-Feb-13 11:30N 34°50' E 136°57'0 0.0
2018-Feb-13 10:54N 34°50' E 136°57'0 0.0
2018-Feb-13 10:24N 34°50' E 136°57'0 0.0
2018-Feb-13 10:00N 34°50' E 136°57'0 0.0
2018-Feb-13 09:30N 34°50' E 136°57'0 0.0
2018-Feb-13 08:54N 34°50' E 136°57'0 0.0
2018-Feb-13 08:30N 34°50' E 136°57'0 0.0
2018-Feb-13 08:00N 34°50' E 136°57'0 0.0
2018-Feb-13 07:24N 34°50' E 136°57'0 0.0
2018-Feb-13 06:54N 34°50' E 136°57'0 0.0
2018-Feb-13 06:24N 34°50' E 136°57'0 0.0
2018-Feb-13 05:54N 34°50' E 136°57'0 0.0
2018-Feb-13 05:30N 34°50' E 136°57'0 0.0
2018-Feb-13 05:00N 34°50' E 136°57'0 0.0
2018-Feb-13 04:30N 34°50' E 136°57'0 0.0
2018-Feb-13 03:42N 34°50' E 136°57'0 0.0
2018-Feb-13 03:30N 34°50' E 136°57'0 0.0
2018-Feb-13 02:48N 34°50' E 136°57'0 0.0
2018-Feb-13 02:30N 34°50' E 136°57'0 0.0
2018-Feb-13 01:54N 34°50' E 136°57'0 0.0
2018-Feb-13 01:30N 34°50' E 136°57'0 0.0
2018-Feb-13 01:00N 34°50' E 136°57'0 0.0
2018-Feb-13 00:24N 34°50' E 136°57'0 0.0
2018-Feb-12 23:54N 34°50' E 136°57'0 0.0
2018-Feb-12 23:30N 34°50' E 136°57'0 0.0
2018-Feb-12 23:00N 34°50' E 136°57'0 0.0
2018-Feb-12 21:12N 34°50' E 136°57'0 0.0
2018-Feb-12 21:00N 34°50' E 136°57'0 0.0
2018-Feb-12 20:30N 34°50' E 136°57'0 0.0
2018-Feb-12 20:00N 34°50' E 136°57'0 0.0
2018-Feb-12 19:30N 34°50' E 136°57'0 0.0
2018-Feb-12 19:00N 34°50' E 136°57'0 0.0
2018-Feb-12 18:24N 34°50' E 136°57'0 0.0
2018-Feb-12 17:54N 34°50' E 136°57'0 0.0
2018-Feb-12 17:18N 34°50' E 136°57'0 0.0
2018-Feb-12 16:54N 34°50' E 136°57'0 0.0
2018-Feb-12 16:30N 34°50' E 136°57'0 0.0
2018-Feb-12 15:54N 34°50' E 136°57'0 0.0
2018-Feb-12 15:12N 34°50' E 136°57'0 0.0
2018-Feb-12 15:00N 34°50' E 136°57'0 0.0
2018-Feb-12 14:30N 34°50' E 136°57'0 0.0
2018-Feb-12 14:00N 34°50' E 136°57'0 0.0
2018-Feb-12 13:30N 34°50' E 136°57'0 0.0
2018-Feb-12 13:00N 34°50' E 136°57'0 0.0
2018-Feb-12 12:30N 34°50' E 136°57'0 0.0
2018-Feb-12 12:00N 34°50' E 136°57'0 0.0
2018-Feb-12 11:18N 34°50' E 136°57'0 0.0
2018-Feb-12 11:00N 34°50' E 136°57'0 0.0
2018-Feb-12 10:30N 34°50' E 136°57'0 0.0
2018-Feb-12 10:00N 34°50' E 136°57'0 0.0
2018-Feb-12 09:30N 34°50' E 136°57'  

Dump ship's entire track history